Time;durP1;ratioP1;P1;durP2;ratioP2;P2;SDS_P1;SDS_P2;PMS_P1;PMS_P2;Temp;Humidity;BMP_temperature;BMP_pressure;BME280_temperature;BME280_humidity;BME280_pressure;Samples;Min_cycle;Max_cycle;Signal;HPM_P1;HPM_P2
2021/04/04 00:01:53;;;;;;;1999.90;999.90;;;;;;;4.48;84.06;98601.88;5024580;28;20496;-64
2021/04/04 00:04:19;;;;;;;1999.90;999.90;;;;;;;4.66;83.98;98616.84;5020160;28;20057;-64
2021/04/04 00:06:45;;;;;;;1999.90;999.90;;;;;;;4.83;83.28;98602.78;5032248;28;20053;-64
2021/04/04 00:09:11;;;;;;;1999.90;999.90;;;;;;;4.53;83.54;98606.50;5021395;28;20123;-64
2021/04/04 00:11:40;;;;;;;1999.90;999.90;;;;;;;3.90;86.14;98607.75;5025543;28;20455;-64
2021/04/04 00:14:07;;;;;;;1999.90;999.90;;;;;;;4.18;86.56;98606.34;5019088;28;20064;-64
2021/04/04 00:16:33;;;;;;;1999.90;999.90;;;;;;;3.97;86.47;98607.47;5021943;28;20050;-64
2021/04/04 00:18:59;;;;;;;1999.90;999.90;;;;;;;4.15;86.11;98604.13;5035082;28;20052;-64
2021/04/04 00:21:26;;;;;;;1999.90;999.90;;;;;;;4.08;86.33;98597.31;5021512;28;20096;-64
2021/04/04 00:23:52;;;;;;;1999.90;999.90;;;;;;;4.18;85.78;98595.38;5049437;28;20046;-64
2021/04/04 00:26:18;;;;;;;1999.90;999.90;;;;;;;3.73;87.65;98597.09;5024918;28;20742;-64
2021/04/04 00:28:44;;;;;;;1999.90;999.90;;;;;;;4.25;84.87;98606.03;5014559;28;20476;-64
2021/04/04 00:31:11;;;;;;;1999.90;999.90;;;;;;;3.08;90.06;98611.28;5019967;28;20053;-64
2021/04/04 00:33:37;;;;;;;1999.90;999.90;;;;;;;3.88;87.32;98613.50;5025221;28;20046;-64
2021/04/04 00:36:03;;;;;;;1999.90;999.90;;;;;;;3.97;85.76;98608.28;5025652;28;20050;-64
2021/04/04 00:38:29;;;;;;;1999.90;999.90;;;;;;;4.21;85.20;98604.94;5022034;28;20448;-64
2021/04/04 00:40:56;;;;;;;1999.90;999.90;;;;;;;3.85;85.67;98605.81;5022635;28;20038;-64
2021/04/04 00:43:23;;;;;;;1999.90;999.90;;;;;;;3.90;85.86;98609.66;5015051;28;20120;-64
2021/04/04 00:45:49;;;;;;;1999.90;999.90;;;;;;;4.18;84.47;98605.50;5010941;28;20045;-64
2021/04/04 00:48:15;;;;;;;1999.90;999.90;;;;;;;4.08;84.56;98608.25;5015902;28;20508;-64
2021/04/04 00:50:41;;;;;;;1999.90;999.90;;;;;;;4.33;83.98;98607.38;5018139;28;20107;-64
2021/04/04 00:53:08;;;;;;;1999.90;999.90;;;;;;;4.25;84.19;98602.47;5017534;28;20523;-64
2021/04/04 00:55:35;;;;;;;1999.90;999.90;;;;;;;4.20;84.02;98615.09;5022835;28;20078;-64
2021/04/04 00:58:03;;;;;;;1999.90;999.90;;;;;;;4.34;83.86;98607.09;5015426;28;20499;-64
2021/04/04 01:00:31;;;;;;;1999.90;999.90;;;;;;;4.28;84.11;98618.34;5020822;28;20092;-64
2021/04/04 01:02:58;;;;;;;1999.90;999.90;;;;;;;4.39;83.50;98614.47;5015449;28;20099;-64
2021/04/04 01:05:30;;;;;;;1999.90;999.90;;;;;;;3.80;85.99;98614.03;5021669;28;20452;-64
2021/04/04 01:07:57;;;;;;;1999.90;999.90;;;;;;;3.95;86.46;98615.94;5016048;28;20049;-64
2021/04/04 01:10:30;;;;;;;1999.90;999.90;;;;;;;4.03;85.82;98622.78;5022067;28;20127;-64
2021/04/04 01:13:09;;;;;;;1999.90;999.90;;;;;;;4.38;85.34;98623.81;5017102;28;20049;-65
2021/04/04 01:15:40;;;;;;;1999.90;999.90;;;;;;;4.30;85.42;98617.00;5018778;28;20049;-64
2021/04/04 01:18:26;;;;;;;1999.90;999.90;;;;;;;4.49;84.41;98616.38;5025054;28;20111;-64
2021/04/04 01:21:00;;;;;;;1999.90;999.90;;;;;;;4.41;84.51;98624.06;5011279;28;20050;-64
2021/04/04 01:23:44;;;;;;;1999.90;999.90;;;;;;;4.31;85.12;98620.53;5021572;28;20405;-64
2021/04/04 01:26:19;;;;;;;1999.90;999.90;;;;;;;4.09;85.79;98627.13;5019022;28;20102;-65
2021/04/04 01:28:46;;;;;;;1999.90;999.90;;;;;;;3.58;88.73;98629.91;5020334;28;20042;-64
2021/04/04 01:31:16;;;;;;;1999.90;999.90;;;;;;;3.98;87.62;98626.34;5017478;28;20099;-65
2021/04/04 01:33:43;;;;;;;1999.90;999.90;;;;;;;4.01;86.68;98635.91;5013670;28;20049;-65
2021/04/04 01:36:14;;;;;;;1999.90;999.90;;;;;;;3.88;87.09;98626.34;5017671;28;20098;-64
2021/04/04 01:38:43;;;;;;;1999.90;999.90;;;;;;;3.99;86.89;98629.88;5030512;28;20045;-64
2021/04/04 01:41:24;;;;;;;1999.90;999.90;;;;;;;3.60;88.77;98631.25;5025311;28;20325;-65
2021/04/04 01:43:57;;;;;;;1999.90;999.90;;;;;;;3.79;87.83;98637.00;5014503;28;20492;-65
2021/04/04 01:46:24;;;;;;;1999.90;999.90;;;;;;;3.61;88.13;98637.56;5020075;28;20375;-65
2021/04/04 01:48:50;;;;;;;1999.90;999.90;;;;;;;3.61;88.96;98638.38;5023891;28;20045;-65
2021/04/04 01:51:16;;;;;;;1999.90;999.90;;;;;;;3.85;87.83;98635.91;5016585;28;20041;-65
2021/04/04 01:53:44;;;;;;;1999.90;999.90;;;;;;;3.80;87.76;98637.84;5021432;28;20127;-64
2021/04/04 01:56:10;;;;;;;1999.90;999.90;;;;;;;3.49;88.78;98635.91;5024249;28;20049;-65
2021/04/04 01:58:38;;;;;;;1999.90;999.90;;;;;;;3.70;88.07;98633.19;5019564;28;20076;-65
2021/04/04 02:01:06;;;;;;;1999.90;999.90;;;;;;;3.59;88.90;98637.84;5019721;28;20045;-64
2021/04/04 02:04:13;;;;;;;1999.90;999.90;;;;;;;3.24;90.55;98641.34;5016674;28;20046;-65
2021/04/04 02:06:42;;;;;;;1999.90;999.90;;;;;;;3.28;90.49;98639.72;5013388;28;20065;-65
2021/04/04 02:09:15;;;;;;;1999.90;999.90;;;;;;;3.38;89.53;98642.47;5016275;28;20104;-65
2021/04/04 02:11:47;;;;;;;1999.90;999.90;;;;;;;3.37;89.51;98643.56;5021463;28;20132;-64
2021/04/04 02:14:18;;;;;;;1999.90;999.90;;;;;;;2.99;90.33;98640.19;5012602;28;20104;-64
2021/04/04 02:16:47;;;;;;;1999.90;999.90;;;;;;;3.64;89.10;98642.50;5018722;28;20542;-64
2021/04/04 02:19:17;;;;;;;1999.90;999.90;;;;;;;3.13;91.42;98646.00;5017537;28;20127;-64
2021/04/04 02:21:46;;;;;;;1999.90;999.90;;;;;;;3.38;89.55;98645.22;5018237;28;20063;-65
2021/04/04 02:24:14;;;;;;;1999.90;999.90;;;;;;;3.35;89.31;98648.50;5015926;28;20057;-64
2021/04/04 02:26:40;;;;;;;1999.90;999.90;;;;;;;3.74;88.07;98647.97;5015612;28;20074;-64
2021/04/04 02:29:06;;;;;;;1999.90;999.90;;;;;;;3.87;87.22;98647.44;5021648;28;20049;-65
2021/04/04 02:31:37;;;;;;;1999.90;999.90;;;;;;;3.78;87.37;98651.81;5018866;28;20076;-64
2021/04/04 02:34:10;;;;;;;1999.90;999.90;;;;;;;3.77;86.91;98650.16;5024264;28;20103;-65
2021/04/04 02:36:39;;;;;;;1999.90;999.90;;;;;;;3.78;86.56;98648.22;5052566;28;20049;-64
2021/04/04 02:39:26;;;;;;;1999.90;999.90;;;;;;;4.12;86.22;98643.00;5018800;28;20490;-64
2021/04/04 02:41:55;;;;;;;1999.90;999.90;;;;;;;3.64;87.65;98656.16;5025424;28;20049;-64
2021/04/04 02:44:25;;;;;;;1999.90;999.90;;;;;;;3.36;88.81;98647.38;5025321;28;20099;-65
2021/04/04 02:46:54;;;;;;;1999.90;999.90;;;;;;;3.73;87.69;98649.06;5022879;28;20041;-65
2021/04/04 02:49:23;;;;;;;1999.90;999.90;;;;;;;3.73;87.07;98649.06;5025617;28;20538;-64
2021/04/04 02:51:52;;;;;;;1999.90;999.90;;;;;;;3.39;87.63;98655.03;5021716;28;20410;-65
2021/04/04 02:54:25;;;;;;;1999.90;999.90;;;;;;;3.47;88.75;98649.06;5022649;28;20042;-66
2021/04/04 02:56:54;;;;;;;1999.90;999.90;;;;;;;3.58;88.55;98654.53;5031390;28;20056;-66
2021/04/04 02:59:27;;;;;;;1999.90;999.90;;;;;;;3.82;87.02;98663.81;5020103;28;20505;-66
2021/04/04 03:01:56;;;;;;;1999.90;999.90;;;;;;;4.12;85.65;98651.22;5023868;28;20104;-66
2021/04/04 03:04:23;;;;;;;1999.90;999.90;;;;;;;4.20;84.99;98650.66;5025234;28;20057;-66
2021/04/04 03:06:51;;;;;;;1999.90;999.90;;;;;;;4.41;84.45;98659.66;5023389;28;20099;-65
2021/04/04 03:09:19;;;;;;;1999.90;999.90;;;;;;;3.70;87.16;98655.88;5027120;28;20046;-65
2021/04/04 03:11:47;;;;;;;1999.90;999.90;;;;;;;4.03;85.77;98658.34;5024148;28;20696;-66
2021/04/04 03:14:15;;;;;;;1999.90;999.90;;;;;;;4.21;84.89;98649.59;5022154;28;20063;-66
2021/04/04 03:16:42;;;;;;;1999.90;999.90;;;;;;;4.26;84.82;98653.38;5027274;28;20489;-66
2021/04/04 03:19:11;;;;;;;1999.90;999.90;;;;;;;4.08;85.33;98646.56;5026161;28;20054;-65
2021/04/04 03:21:39;;;;;;;1999.90;999.90;;;;;;;4.01;85.09;98644.94;5023369;28;20049;-66
2021/04/04 03:24:08;;;;;;;1999.90;999.90;;;;;;;3.80;85.19;98657.00;5021225;28;20053;-66
2021/04/04 03:26:35;;;;;;;1999.90;999.90;;;;;;;3.58;87.13;98657.28;5024242;28;20106;-66
2021/04/04 03:29:02;;;;;;;1999.90;999.90;;;;;;;3.88;86.44;98651.81;5019183;28;20405;-63
2021/04/04 03:31:28;;;;;;;1999.90;999.90;;;;;;;3.44;87.83;98662.44;5023993;28;20046;-64
2021/04/04 03:33:58;;;;;;;1999.90;999.90;;;;;;;3.34;88.41;98649.56;5018901;28;20057;-63
2021/04/04 03:36:25;;;;;;;1999.90;999.90;;;;;;;3.53;87.35;98655.34;5020459;28;20045;-65
2021/04/04 03:38:54;;;;;;;1999.90;999.90;;;;;;;3.68;87.20;98660.81;5018302;28;20450;-64
2021/04/04 03:41:28;;;;;;;1999.90;999.90;;;;;;;3.49;88.45;98654.25;5025632;28;20041;-64
2021/04/04 03:43:55;;;;;;;1999.90;999.90;;;;;;;3.86;87.23;98651.25;5013081;28;20464;-64
2021/04/04 03:46:26;;;;;;;1999.90;999.90;;;;;;;2.94;90.32;98651.94;5023591;28;20053;-63
2021/04/04 03:48:54;;;;;;;1999.90;999.90;;;;;;;3.39;89.44;98655.03;5019689;28;20049;-64
2021/04/04 03:51:25;;;;;;;1999.90;999.90;;;;;;;3.02;90.04;98661.50;5019854;28;20049;-63
2021/04/04 03:53:52;;;;;;;1999.90;999.90;;;;;;;2.94;89.85;98656.59;5017638;28;20052;-64
2021/04/04 03:56:22;;;;;;;1999.90;999.90;;;;;;;3.47;89.50;98665.47;5019904;28;20050;-63
2021/04/04 03:58:49;;;;;;;1999.90;999.90;;;;;;;3.51;89.05;98666.56;5023708;28;20111;-64
2021/04/04 04:01:22;;;;;;;1999.90;999.90;;;;;;;3.47;88.52;98665.47;5020534;28;20503;-65
2021/04/04 04:03:49;;;;;;;1999.90;999.90;;;;;;;3.40;88.30;98653.16;5022020;28;20057;-64
2021/04/04 04:06:16;;;;;;;1999.90;999.90;;;;;;;3.58;88.45;98660.00;5016762;28;20049;-64
2021/04/04 04:08:43;;;;;;;1999.90;999.90;;;;;;;3.72;87.61;98660.28;5020539;28;20053;-64
2021/04/04 04:11:11;;;;;;;1999.90;999.90;;;;;;;3.54;87.44;98667.91;5013408;28;20046;-65
2021/04/04 04:13:39;;;;;;;1999.90;999.90;;;;;;;3.58;88.03;98673.69;5017865;28;20048;-65
2021/04/04 04:16:09;;;;;;;1999.90;999.90;;;;;;;3.40;88.31;98673.09;5023743;28;20057;-65
2021/04/04 04:18:35;;;;;;;1999.90;999.90;;;;;;;3.87;86.81;98672.06;5022235;28;20056;-66
2021/04/04 04:21:02;;;;;;;1999.90;999.90;;;;;;;3.65;86.65;98668.75;5015406;28;20136;-65
2021/04/04 04:23:29;;;;;;;1999.90;999.90;;;;;;;3.41;88.44;98677.47;5025560;28;20389;-66
2021/04/04 04:25:57;;;;;;;1999.90;999.90;;;;;;;3.34;89.10;98676.91;5019525;28;20113;-66
2021/04/04 04:28:23;;;;;;;1999.90;999.90;;;;;;;3.21;89.38;98674.69;5019662;28;20560;-65
2021/04/04 04:30:49;;;;;;;1999.90;999.90;;;;;;;3.51;88.20;98672.03;5016410;28;20048;-66
2021/04/04 04:33:19;;;;;;;1999.90;999.90;;;;;;;3.48;89.01;98674.47;5015594;28;20053;-65
2021/04/04 04:35:48;;;;;;;1999.90;999.90;;;;;;;3.35;89.06;98673.91;5022583;28;20216;-65
2021/04/04 04:38:15;;;;;;;1999.90;999.90;;;;;;;3.36;88.63;98674.72;5026304;28;20553;-65
2021/04/04 04:40:43;;;;;;;1999.90;999.90;;;;;;;3.40;88.49;98675.84;5020520;28;20049;-65
2021/04/04 04:43:13;;;;;;;1999.90;999.90;;;;;;;3.48;87.99;98669.84;5017993;28;20042;-65
2021/04/04 04:45:41;;;;;;;1999.90;999.90;;;;;;;3.67;87.17;98669.31;5015505;28;20137;-64
2021/04/04 04:48:09;;;;;;;1999.90;999.90;;;;;;;3.73;86.70;98675.59;5026430;28;20049;-63
2021/04/04 04:50:36;;;;;;;1999.90;999.90;;;;;;;3.49;87.13;98676.94;5018408;28;20045;-64
2021/04/04 04:53:02;;;;;;;1999.90;999.90;;;;;;;3.87;85.72;98668.47;5021070;28;20061;-65
2021/04/04 04:55:31;;;;;;;1999.90;999.90;;;;;;;3.92;85.63;98676.69;5015424;28;20046;-64
2021/04/04 04:57:58;;;;;;;1999.90;999.90;;;;;;;3.92;85.56;98665.75;5023764;28;20092;-64
2021/04/04 05:00:26;;;;;;;1999.90;999.90;;;;;;;3.89;85.68;98674.50;5020076;28;20053;-65
2021/04/04 05:02:53;;;;;;;1999.90;999.90;;;;;;;3.93;85.35;98672.03;5022506;28;20049;-64
2021/04/04 05:05:20;;;;;;;1999.90;999.90;;;;;;;3.82;84.95;98668.47;5015538;28;20452;-64
2021/04/04 05:07:47;;;;;;;1999.90;999.90;;;;;;;3.63;86.12;98669.03;5019992;28;20103;-65
2021/04/04 05:10:14;;;;;;;1999.90;999.90;;;;;;;3.42;86.82;98676.38;5026623;28;20041;-65
2021/04/04 05:12:51;;;;;;;1999.90;999.90;;;;;;;3.39;86.89;98674.19;5019042;28;20041;-65
2021/04/04 05:15:19;;;;;;;1999.90;999.90;;;;;;;3.65;86.47;98676.97;5020455;28;20140;-65
2021/04/04 05:17:45;;;;;;;1999.90;999.90;;;;;;;3.84;85.64;98686.28;5010896;28;20050;-65
2021/04/04 05:20:13;;;;;;;1999.90;999.90;;;;;;;3.66;86.11;98690.38;5019115;28;21391;-64
2021/04/04 05:22:39;;;;;;;1999.90;999.90;;;;;;;3.32;87.56;98692.75;5014335;28;20057;-64
2021/04/04 05:25:07;;;;;;;1999.90;999.90;;;;;;;3.35;88.68;98689.50;5017525;28;20096;-64
2021/04/04 05:27:33;;;;;;;1999.90;999.90;;;;;;;3.44;88.45;98689.78;5012051;28;20078;-64
2021/04/04 05:30:01;;;;;;;1999.90;999.90;;;;;;;3.52;87.57;98689.25;5016767;28;20129;-64
2021/04/04 05:32:28;;;;;;;1999.90;999.90;;;;;;;3.14;88.28;98688.59;5022214;28;20053;-64
2021/04/04 05:34:54;;;;;;;1999.90;999.90;;;;;;;3.14;87.91;98689.44;5013463;28;20045;-64
2021/04/04 05:37:20;;;;;;;1999.90;999.90;;;;;;;2.16;92.09;98698.22;5018874;28;20107;-64
2021/04/04 05:39:46;;;;;;;1999.90;999.90;;;;;;;2.37;93.64;98696.47;5013146;28;20298;-64
2021/04/04 05:42:14;;;;;;;1999.90;999.90;;;;;;;2.89;91.52;98697.53;5019069;28;20053;-64
2021/04/04 05:45:02;;;;;;;1999.90;999.90;;;;;;;3.49;87.60;98696.06;5014422;28;20491;-64
2021/04/04 05:47:42;;;;;;;1999.90;999.90;;;;;;;3.56;86.64;98692.25;5018791;28;20051;-64
2021/04/04 05:50:30;;;;;;;1999.90;999.90;;;;;;;3.12;87.77;98693.53;5022034;28;20520;-64
2021/04/04 05:53:08;;;;;;;1999.90;999.90;;;;;;;2.78;88.00;98693.94;5024126;28;20071;-64
2021/04/04 05:55:57;;;;;;;1999.90;999.90;;;;;;;3.02;88.17;98702.50;5015626;28;20065;-64
2021/04/04 05:58:31;;;;;;;1999.90;999.90;;;;;;;2.83;87.19;98704.91;5016926;28;20049;-64
2021/04/04 06:01:15;;;;;;;1999.90;999.90;;;;;;;3.22;85.22;98706.41;5024005;28;20099;-64
2021/04/04 06:03:41;;;;;;;1999.90;999.90;;;;;;;3.44;84.32;98708.91;5016216;28;20093;-64
2021/04/04 06:06:25;;;;;;;1999.90;999.90;;;;;;;3.46;83.83;98713.03;5012785;28;20066;-65
2021/04/04 06:09:29;;;;;;;1999.90;999.90;;;;;;;3.61;83.85;98714.16;5023945;28;20046;-64
2021/04/04 06:12:18;;;;;;;1999.90;999.90;;;;;;;4.00;83.68;98716.38;5017361;28;20053;-65
2021/04/04 06:15:21;;;;;;;1999.90;999.90;;;;;;;4.40;81.03;98721.00;5028554;28;20485;-64
2021/04/04 06:18:01;;;;;;;1999.90;999.90;;;;;;;3.15;85.31;98718.41;5021628;28;20481;-64
2021/04/04 06:20:54;;;;;;;1999.90;999.90;;;;;;;3.62;84.10;98715.81;5024533;28;20460;-64
2021/04/04 06:23:31;;;;;;;1999.90;999.90;;;;;;;3.81;84.15;98725.13;5026705;28;20054;-64
2021/04/04 06:26:16;;;;;;;1999.90;999.90;;;;;;;4.28;80.61;98728.69;5023614;28;20042;-64
2021/04/04 06:28:58;;;;;;;1999.90;999.90;;;;;;;3.80;82.41;98730.88;5017952;28;20279;-64
2021/04/04 06:31:24;;;;;;;1999.90;999.90;;;;;;;3.60;82.09;98727.00;5019214;28;20565;-64
2021/04/04 06:34:19;;;;;;;1999.90;999.90;;;;;;;4.18;80.84;98724.03;5021775;28;20045;-64
2021/04/04 06:36:59;;;;;;;1999.90;999.90;;;;;;;3.64;81.86;98724.56;5026252;28;20049;-65
2021/04/04 06:39:42;;;;;;;1999.90;999.90;;;;;;;4.54;79.28;98721.25;5023237;28;20077;-64
2021/04/04 06:42:13;;;;;;;1999.90;999.90;;;;;;;5.16;76.69;98734.75;5024702;28;20057;-64
2021/04/04 06:44:54;;;;;;;1999.90;999.90;;;;;;;5.48;73.82;98728.03;5024742;28;20053;-65
2021/04/04 06:47:54;;;;;;;1999.90;999.90;;;;;;;5.01;75.41;98730.16;5021485;28;20072;-64
2021/04/04 06:50:22;;;;;;;1999.90;999.90;;;;;;;5.33;73.28;98723.44;5029006;28;20107;-64
2021/04/04 06:53:16;;;;;;;1999.90;999.90;;;;;;;4.43;76.62;98736.06;5023833;28;20053;-65
2021/04/04 06:56:03;;;;;;;1999.90;999.90;;;;;;;4.55;76.79;98731.09;5031784;28;20037;-65
2021/04/04 06:58:50;;;;;;;1999.90;999.90;;;;;;;4.87;75.64;98734.59;5018930;28;20045;-64
2021/04/04 07:01:35;;;;;;;1999.90;999.90;;;;;;;5.46;72.77;98725.56;5019170;28;20056;-65
2021/04/04 07:04:08;;;;;;;1999.90;999.90;;;;;;;5.60;72.22;98714.78;5015047;28;20381;-65
2021/04/04 07:06:37;;;;;;;1999.90;999.90;;;;;;;5.15;73.63;98727.66;5018231;28;20050;-65
2021/04/04 07:09:41;;;;;;;1999.90;999.90;;;;;;;5.90;70.71;98715.69;5021598;28;20053;-65
2021/04/04 07:12:31;;;;;;;1999.90;999.90;;;;;;;5.81;70.77;98720.16;5019624;28;20061;-65
2021/04/04 07:14:59;;;;;;;1999.90;999.90;;;;;;;5.32;75.88;98723.75;5022183;28;20049;-64
2021/04/04 07:17:42;;;;;;;1999.90;999.90;;;;;;;5.64;71.25;98721.34;5016042;28;20131;-64
2021/04/04 07:20:48;;;;;;;1999.90;999.90;;;;;;;5.75;70.18;98715.81;5022133;28;20064;-64
2021/04/04 07:23:26;;;;;;;1999.90;999.90;;;;;;;5.15;70.99;98719.44;5021192;28;20046;-65
2021/04/04 07:26:02;;;;;;;1999.90;999.90;;;;;;;5.23;71.58;98726.25;5019468;28;20240;-64
2021/04/04 07:29:00;;;;;;;1999.90;999.90;;;;;;;4.43;73.79;98741.53;5022713;28;20050;-64
2021/04/04 07:31:37;;;;;;;1999.90;999.90;;;;;;;5.75;72.45;98732.25;5033484;28;20559;-64
2021/04/04 07:34:13;;;;;;;1999.90;999.90;;;;;;;5.88;69.90;98739.84;5025166;28;20048;-64
2021/04/04 07:36:51;;;;;;;1999.90;999.90;;;;;;;5.87;69.93;98746.44;5014805;28;20155;-65
2021/04/04 07:39:29;;;;;;;1999.90;999.90;;;;;;;5.76;69.73;98742.13;5016384;28;20089;-64
2021/04/04 07:42:19;;;;;;;1999.90;999.90;;;;;;;5.17;74.98;98750.13;5014612;28;20638;-64
2021/04/04 07:45:06;;;;;;;1999.90;999.90;;;;;;;6.05;68.07;98744.16;5017310;28;20049;-64
2021/04/04 07:47:54;;;;;;;1999.90;999.90;;;;;;;6.90;67.86;98744.75;5016338;28;20060;-64
2021/04/04 07:50:26;;;;;;;1999.90;999.90;;;;;;;6.60;64.49;98747.53;5019065;28;20049;-64
2021/04/04 07:53:03;;;;;;;1999.90;999.90;;;;;;;6.73;66.67;98742.44;5022217;28;20045;-64
2021/04/04 07:55:37;;;;;;;1999.90;999.90;;;;;;;6.69;67.63;98745.78;5017342;28;20060;-63
2021/04/04 07:58:03;;;;;;;1999.90;999.90;;;;;;;7.16;62.83;98737.84;5022778;28;20044;-64
2021/04/04 08:00:31;;;;;;;1999.90;999.90;;;;;;;6.53;64.64;98747.03;5018376;28;20475;-64
2021/04/04 08:03:08;;;;;;;1999.90;999.90;;;;;;;6.73;63.31;98740.53;5019156;28;20053;-64
2021/04/04 08:05:41;;;;;;;1999.90;999.90;;;;;;;6.85;62.29;98748.38;5018117;28;20061;-64
2021/04/04 08:08:14;;;;;;;1999.90;999.90;;;;;;;6.10;65.62;98755.94;5022313;28;20054;-64
2021/04/04 08:10:48;;;;;;;1999.90;999.90;;;;;;;6.58;61.90;98738.75;5024319;28;20064;-64
2021/04/04 08:13:37;;;;;;;1999.90;999.90;;;;;;;7.29;60.64;98741.78;5012802;28;20513;-65
2021/04/04 08:16:07;;;;;;;1999.90;999.90;;;;;;;7.81;56.72;98741.13;5012100;28;20054;-65
2021/04/04 08:18:33;;;;;;;1999.90;999.90;;;;;;;6.64;58.62;98748.59;5017352;28;20049;-64
2021/04/04 08:21:07;;;;;;;1999.90;999.90;;;;;;;6.06;60.79;98748.53;5023811;28;20654;-65
2021/04/04 08:23:44;;;;;;;1999.90;999.90;;;;;;;6.73;61.82;98747.94;5012832;28;20179;-64
2021/04/04 08:26:25;;;;;;;1999.90;999.90;;;;;;;6.40;62.55;98750.44;5022497;28;20045;-65
2021/04/04 08:29:16;;;;;;;1999.90;999.90;;;;;;;6.93;61.38;98750.47;5010482;28;20054;-65
2021/04/04 08:31:48;;;;;;;1999.90;999.90;;;;;;;6.52;62.88;98750.91;5017916;28;20549;-64
2021/04/04 08:34:20;;;;;;;1999.90;999.90;;;;;;;6.16;64.36;98753.94;5009788;28;20068;-65
2021/04/04 08:36:57;;;;;;;1999.90;999.90;;;;;;;6.17;66.67;98750.91;5023195;28;20053;-65
2021/04/04 08:39:26;;;;;;;1999.90;999.90;;;;;;;6.39;65.17;98751.59;5021313;28;20468;-64
2021/04/04 08:41:56;;;;;;;1999.90;999.90;;;;;;;6.43;63.16;98747.13;5024548;28;20046;-65
2021/04/04 08:44:29;;;;;;;1999.90;999.90;;;;;;;6.29;63.38;98756.03;5017097;28;20587;-65
2021/04/04 08:47:00;;;;;;;1999.90;999.90;;;;;;;6.27;63.59;98752.75;5018010;28;20046;-65
2021/04/04 08:49:27;;;;;;;1999.90;999.90;;;;;;;6.47;62.44;98753.69;5013717;28;20497;-65
2021/04/04 08:52:06;;;;;;;1999.90;999.90;;;;;;;6.15;61.67;98746.84;5019004;28;20049;-65
2021/04/04 08:54:34;;;;;;;1999.90;999.90;;;;;;;5.65;63.86;98752.34;5015642;28;20054;-65
2021/04/04 08:57:00;;;;;;;1999.90;999.90;;;;;;;6.04;64.64;98748.81;5023432;28;20049;-65
2021/04/04 08:59:31;;;;;;;1999.90;999.90;;;;;;;6.89;62.22;98754.91;5015741;28;20069;-65
2021/04/04 09:02:04;;;;;;;1999.90;999.90;;;;;;;7.21;60.43;98743.28;5045529;28;20050;-65
2021/04/04 09:04:31;;;;;;;1999.90;999.90;;;;;;;8.20;56.50;98737.19;5010642;28;20211;-65
2021/04/04 09:07:04;;;;;;;1999.90;999.90;;;;;;;7.64;56.58;98742.44;5018088;28;20054;-65
2021/04/04 09:09:46;;;;;;;1999.90;999.90;;;;;;;6.87;59.05;98746.94;5015798;28;20053;-65
2021/04/04 09:12:13;;;;;;;1999.90;999.90;;;;;;;6.97;60.77;98734.22;5016287;28;20058;-65
2021/04/04 09:14:41;;;;;;;1999.90;999.90;;;;;;;6.78;61.86;98736.91;5018645;28;20057;-65
2021/04/04 09:17:16;;;;;;;1999.90;999.90;;;;;;;6.37;61.87;98740.03;5012000;28;20054;-65
2021/04/04 09:19:59;;;;;;;1999.90;999.90;;;;;;;6.54;60.93;98734.13;5012121;28;20123;-65
2021/04/04 09:22:25;;;;;;;1999.90;999.90;;;;;;;6.29;62.66;98731.31;5012776;28;20053;-65
2021/04/04 09:24:59;;;;;;;1999.90;999.90;;;;;;;6.23;63.17;98731.66;5012224;28;20451;-65
2021/04/04 09:27:28;;;;;;;1999.90;999.90;;;;;;;6.27;62.67;98730.78;5017679;28;20057;-65
2021/04/04 09:29:58;;;;;;;1999.90;999.90;;;;;;;5.41;65.25;98743.97;5019276;28;20049;-65
2021/04/04 09:32:44;;;;;;;1999.90;999.90;;;;;;;4.67;67.31;98743.69;5016531;28;20119;-65
2021/04/04 09:35:16;;;;;;;1999.90;999.90;;;;;;;5.40;65.88;98739.59;5016219;28;20402;-65
2021/04/04 09:37:44;;;;;;;1999.90;999.90;;;;;;;5.00;65.59;98739.50;5011856;28;20080;-65
2021/04/04 09:40:12;;;;;;;1999.90;999.90;;;;;;;4.97;68.39;98740.03;5011887;28;20077;-65
2021/04/04 09:42:38;;;;;;;1999.90;999.90;;;;;;;5.52;66.59;98734.56;5013306;28;20464;-65
2021/04/04 09:45:18;;;;;;;1999.90;999.90;;;;;;;6.12;66.25;98737.22;5015688;28;20472;-66
2021/04/04 09:47:50;;;;;;;1999.90;999.90;;;;;;;5.45;64.88;98739.56;5013414;28;20046;-66
2021/04/04 09:50:28;;;;;;;;;;;;;;;5.76;64.98;98729.22;5015288;28;20456;-65
2021/04/04 09:52:55;;;;;;;1999.90;999.90;;;;;;;6.60;63.05;98730.22;5012837;28;19925;-65
2021/04/04 09:55:26;;;;;;;1999.90;999.90;;;;;;;6.99;63.29;98734.75;5011963;28;20045;-66
2021/04/04 09:58:01;;;;;;;1999.90;999.90;;;;;;;6.95;61.41;98729.03;5016266;28;20060;-66
2021/04/04 10:00:40;;;;;;;1999.90;999.90;;;;;;;6.97;61.21;98735.03;5006985;28;20080;-63
2021/04/04 10:03:13;;;;;;;1999.90;999.90;;;;;;;6.84;62.72;98735.72;5008915;28;20500;-63
2021/04/04 10:05:42;;;;;;;1999.90;999.90;;;;;;;6.17;65.06;98728.13;5011127;28;20538;-64
2021/04/04 10:08:10;;;;;;;1999.90;999.90;;;;;;;6.55;62.92;98725.59;5011439;28;20056;-65
2021/04/04 10:10:37;;;;;;;1999.90;999.90;;;;;;;6.44;63.81;98727.59;5011408;28;20099;-65
2021/04/04 10:13:04;;;;;;;1999.90;999.90;;;;;;;6.35;63.40;98738.41;5009944;28;20054;-65
2021/04/04 10:15:39;;;;;;;1999.90;999.90;;;;;;;7.04;62.23;98730.00;5045074;28;20501;-65
2021/04/04 10:18:06;;;;;;;1999.90;999.90;;;;;;;6.99;60.07;98732.00;5006861;28;20120;-65
2021/04/04 10:20:39;;;;;;;1999.90;999.90;;;;;;;7.02;60.55;98732.22;5012604;28;20057;-65
2021/04/04 10:23:07;;;;;;;1999.90;999.90;;;;;;;7.64;57.11;98728.69;5020903;28;20471;-64
2021/04/04 10:25:34;;;;;;;1999.90;999.90;;;;;;;6.92;58.35;98726.84;5016176;28;20050;-65
2021/04/04 10:28:05;;;;;;;1999.90;999.90;;;;;;;7.26;58.20;98725.06;5018525;28;20275;-66
2021/04/04 10:30:33;;;;;;;1999.90;999.90;;;;;;;7.96;57.83;98720.78;5018877;28;20045;-65
2021/04/04 10:33:29;;;;;;;1999.90;999.90;;;;;;;7.67;58.04;98719.84;5016043;28;20081;-65
2021/04/04 10:35:56;;;;;;;1999.90;999.90;;;;;;;7.28;57.57;98720.91;5021723;28;20065;-65
2021/04/04 10:38:25;;;;;;;1999.90;999.90;;;;;;;7.40;58.39;98715.81;5015723;28;20049;-65
2021/04/04 10:40:51;;;;;;;1999.90;999.90;;;;;;;7.05;59.41;98720.63;5012694;28;20490;-65
2021/04/04 10:43:20;;;;;;;1999.90;999.90;;;;;;;7.09;60.24;98711.81;5017245;28;20184;-65
2021/04/04 10:45:59;;;;;;;1999.90;999.90;;;;;;;7.00;59.06;98712.44;5018812;28;20120;-65
2021/04/04 10:48:27;;;;;;;1999.90;999.90;;;;;;;6.40;61.68;98710.09;5012493;28;20057;-65
2021/04/04 10:50:53;;;;;;;1999.90;999.90;;;;;;;6.94;61.33;98710.88;5018787;28;20390;-65
2021/04/04 10:53:20;;;;;;;1999.90;999.90;;;;;;;7.34;58.89;98705.97;5016411;28;20050;-65
2021/04/04 10:55:48;;;;;;;1999.90;999.90;;;;;;;7.01;59.18;98707.75;5019281;28;20049;-64
2021/04/04 10:58:18;;;;;;;1999.90;999.90;;;;;;;6.55;60.17;98709.13;5011815;28;20054;-65
2021/04/04 11:00:45;;;;;;;1999.90;999.90;;;;;;;6.64;60.16;98699.13;5017474;28;20049;-64
2021/04/04 11:03:12;;;;;;;1999.90;999.90;;;;;;;7.07;59.44;98701.09;5020553;28;20524;-65
2021/04/04 11:05:38;;;;;;;1999.90;999.90;;;;;;;7.50;58.90;98698.34;5021409;28;20088;-65
2021/04/04 11:08:04;;;;;;;1999.90;999.90;;;;;;;7.77;57.08;98685.84;5017957;28;20050;-66
2021/04/04 11:10:31;;;;;;;1999.90;999.90;;;;;;;6.87;57.40;98680.16;5016746;28;20091;-65
2021/04/04 11:13:00;;;;;;;1999.90;999.90;;;;;;;7.58;55.37;98685.84;5021795;28;20170;-65
2021/04/04 11:15:30;;;;;;;1999.90;999.90;;;;;;;6.60;59.10;98686.25;5020178;28;20084;-65
2021/04/04 11:17:59;;;;;;;1999.90;999.90;;;;;;;7.16;58.63;98682.00;5015780;28;20092;-65
2021/04/04 11:20:26;;;;;;;1999.90;999.90;;;;;;;6.81;58.25;98676.66;5020389;28;20109;-65
2021/04/04 11:22:52;;;;;;;1999.90;999.90;;;;;;;7.24;58.34;98678.59;5024685;28;20049;-65
2021/04/04 11:25:19;;;;;;;1999.90;999.90;;;;;;;6.58;60.51;98678.31;5012596;28;20058;-65